createdAt,value
2023-03-11T00:00:34.781Z,0.26
2023-03-11T00:03:02.821Z,0.31
2023-03-11T00:05:32.278Z,0.32
2023-03-11T00:07:59.506Z,0.19
2023-03-11T00:10:30.299Z,0.12
2023-03-11T00:13:00.366Z,0.11
2023-03-11T00:15:28.650Z,0.08
2023-03-11T00:17:55.550Z,-0.08
2023-03-11T00:20:27.023Z,-0.03
2023-03-11T00:22:54.120Z,-0.16
2023-03-11T00:25:22.729Z,-0.22
2023-03-11T00:27:49.300Z,-0.18
2023-03-11T00:30:17.381Z,-0.19
2023-03-11T00:32:43.936Z,-0.18
2023-03-11T00:35:17.334Z,-0.22
2023-03-11T00:37:46.438Z,-0.26
2023-03-11T00:40:15.873Z,-0.30
2023-03-11T00:42:42.382Z,-0.28
2023-03-11T00:45:10.620Z,-0.30
2023-03-11T00:47:37.228Z,-0.26
2023-03-11T00:50:04.507Z,-0.45
2023-03-11T00:52:31.410Z,-0.44
2023-03-11T00:54:59.487Z,-0.44
2023-03-11T00:57:29.016Z,-0.41
2023-03-11T00:59:56.173Z,-0.40
2023-03-11T01:02:24.389Z,-0.43
2023-03-11T01:04:57.131Z,-0.36
2023-03-11T01:07:23.808Z,-0.41
2023-03-11T01:09:50.247Z,-0.44
2023-03-11T01:12:16.694Z,-0.54
2023-03-11T01:14:43.204Z,-0.60
2023-03-11T01:17:09.978Z,-0.52
2023-03-11T01:19:36.461Z,-0.52
2023-03-11T01:22:02.929Z,-0.55
2023-03-11T01:24:29.346Z,-0.53
2023-03-11T01:26:56.330Z,-0.58
2023-03-11T01:29:24.512Z,-0.53
2023-03-11T01:31:50.983Z,-0.55
2023-03-11T01:34:17.481Z,-0.62
2023-03-11T01:36:43.897Z,-0.58
2023-03-11T01:39:10.325Z,-0.60
2023-03-11T01:41:36.967Z,-0.64
2023-03-11T01:44:05.048Z,-0.56
2023-03-11T01:46:59.632Z,-0.48
2023-03-11T01:49:30.500Z,-0.51
2023-03-11T01:52:02.746Z,-0.70
2023-03-11T01:54:35.862Z,-0.74
2023-03-11T01:57:06.847Z,-0.77
2023-03-11T01:59:38.132Z,-0.87
2023-03-11T02:02:11.441Z,-0.81
2023-03-11T02:04:38.910Z,-0.76
2023-03-11T02:07:08.345Z,-0.71
2023-03-11T02:09:41.588Z,-0.75
2023-03-11T02:12:10.802Z,-0.75
2023-03-11T02:14:41.909Z,-0.88
2023-03-11T02:21:23.253Z,-0.97
2023-03-11T02:23:59.822Z,-0.98
2023-03-11T02:26:50.972Z,-0.98
2023-03-11T02:29:19.907Z,-1.11
2023-03-11T02:31:48.396Z,-1.11
2023-03-11T02:34:24.408Z,-1.10
2023-03-11T02:36:51.532Z,-1.10
2023-03-11T02:39:39.426Z,-1.19
2023-03-11T02:42:15.408Z,-1.16
2023-03-11T02:44:45.863Z,-1.07
2023-03-11T02:47:12.750Z,-1.13
2023-03-11T02:49:39.543Z,-1.10
2023-03-11T02:52:06.305Z,-1.16
2023-03-11T02:54:33.610Z,-1.03
2023-03-11T02:57:00.068Z,-1.03
2023-03-11T02:59:27.869Z,-1.17
2023-03-11T03:01:55.880Z,-1.21
2023-03-11T03:04:22.448Z,-1.22
2023-03-11T03:06:49.115Z,-1.26
2023-03-11T03:09:16.977Z,-1.25
2023-03-11T03:11:44.038Z,-1.27
2023-03-11T03:14:10.542Z,-1.24
2023-03-11T03:16:37.024Z,-1.27
2023-03-11T03:19:04.403Z,-1.24
2023-03-11T03:21:30.894Z,-1.27
2023-03-11T03:23:57.373Z,-1.35
2023-03-11T03:26:23.797Z,-1.41
2023-03-11T03:28:51.008Z,-1.32
2023-03-11T03:31:17.707Z,-1.25
2023-03-11T03:33:44.611Z,-1.36
2023-03-11T03:36:14.064Z,-1.31
2023-03-11T03:38:44.000Z,-1.34
2023-03-11T03:41:14.524Z,-1.35
2023-03-11T03:43:41.732Z,-1.23
2023-03-11T03:46:08.889Z,-1.17
2023-03-11T03:48:40.810Z,-1.30
2023-03-11T03:51:13.189Z,-1.46
2023-03-11T03:53:46.511Z,-1.47
2023-03-11T03:56:16.206Z,-1.40
2023-03-11T03:58:44.456Z,-1.33
2023-03-11T04:01:11.938Z,-1.41
2023-03-11T04:03:39.542Z,-1.37
2023-03-11T04:06:24.810Z,-1.33
2023-03-11T04:08:57.239Z,-1.44
2023-03-11T04:11:28.606Z,-1.52
2023-03-11T04:13:55.607Z,-1.55
2023-03-11T04:16:24.499Z,-1.66
2023-03-11T04:18:55.650Z,-1.74
2023-03-11T04:21:22.078Z,-1.75
2023-03-11T04:23:48.708Z,-1.76
2023-03-11T04:26:17.632Z,-1.77
2023-03-11T04:28:44.040Z,-1.67
2023-03-11T04:31:12.478Z,-1.68
2023-03-11T04:33:39.154Z,-1.68
2023-03-11T04:36:09.412Z,-1.73
2023-03-11T04:38:37.505Z,-1.68
2023-03-11T04:41:07.089Z,-1.76
2023-03-11T04:43:35.369Z,-1.78
2023-03-11T04:46:01.920Z,-1.79
2023-03-11T04:48:28.912Z,-1.77
2023-03-11T04:50:55.576Z,-1.90
2023-03-11T04:53:23.766Z,-1.95
2023-03-11T04:55:51.010Z,-1.99
2023-03-11T04:58:17.596Z,-1.94
2023-03-11T05:00:46.244Z,-2.04
2023-03-11T05:03:14.571Z,-1.99
2023-03-11T05:05:41.022Z,-2.05
2023-03-11T05:08:07.720Z,-2.01
2023-03-11T05:10:34.905Z,-2.03
2023-03-11T05:13:04.546Z,-1.92
2023-03-11T05:15:34.729Z,-2.02
2023-03-11T05:18:03.382Z,-1.96
2023-03-11T05:20:31.416Z,-1.92
2023-03-11T05:22:58.406Z,-1.84
2023-03-11T05:25:26.114Z,-1.82
2023-03-11T05:27:52.893Z,-1.76
2023-03-11T05:30:19.919Z,-1.72
2023-03-11T05:32:48.804Z,-1.82
2023-03-11T05:35:15.370Z,-1.79
2023-03-11T05:37:41.935Z,-1.82
2023-03-11T05:40:11.985Z,-1.96
2023-03-11T05:42:40.170Z,-1.97
2023-03-11T05:45:08.737Z,-1.91
2023-03-11T05:47:36.538Z,-1.92
2023-03-11T05:50:04.927Z,-2.03
2023-03-11T05:52:32.966Z,-2.06
2023-03-11T05:54:59.758Z,-2.07
2023-03-11T05:57:28.761Z,-2.17
2023-03-11T05:59:56.128Z,-2.20
2023-03-11T06:02:23.321Z,-2.20
2023-03-11T06:04:49.995Z,-2.21
2023-03-11T06:07:16.861Z,-2.21
2023-03-11T06:09:46.834Z,-2.16
2023-03-11T06:12:17.260Z,-2.18
2023-03-11T06:14:55.078Z,-2.17
2023-03-11T06:17:21.973Z,-2.13
2023-03-11T06:19:48.490Z,-2.11
2023-03-11T06:22:15.443Z,-2.17
2023-03-11T06:24:41.982Z,-2.17
2023-03-11T06:27:11.129Z,-2.10
2023-03-11T06:29:40.010Z,-2.02
2023-03-11T06:32:06.887Z,-2.03
2023-03-11T06:34:33.371Z,-1.93
2023-03-11T06:37:00.461Z,-1.81
2023-03-11T06:39:26.932Z,-1.79
2023-03-11T06:41:54.429Z,-1.90
2023-03-11T06:44:20.901Z,-1.90
2023-03-11T06:46:47.966Z,-1.80
2023-03-11T06:49:15.801Z,-1.85
2023-03-11T06:51:42.644Z,-1.91
2023-03-11T06:54:10.571Z,-1.85
2023-03-11T06:56:37.105Z,-1.80
2023-03-11T06:59:06.737Z,-1.74
2023-03-11T07:01:34.399Z,-1.69
2023-03-11T07:04:03.858Z,-1.60
2023-03-11T07:06:31.334Z,-1.46
2023-03-11T07:09:08.538Z,-1.33
2023-03-11T07:11:38.787Z,-1.33
2023-03-11T07:14:09.645Z,-1.27
2023-03-11T07:16:39.514Z,-1.16
2023-03-11T07:19:12.381Z,-1.11
2023-03-11T07:21:39.265Z,-1.05
2023-03-11T07:24:06.330Z,-1.00
2023-03-11T07:26:35.691Z,-0.87
2023-03-11T07:29:02.316Z,-0.81
2023-03-11T07:31:34.041Z,-0.82
2023-03-11T07:34:03.419Z,-0.96
2023-03-11T07:36:30.448Z,-0.97
2023-03-11T07:39:01.120Z,-0.91
2023-03-11T07:41:29.764Z,-0.87
2023-03-11T07:43:58.552Z,-0.81
2023-03-11T07:46:26.133Z,-0.60
2023-03-11T07:48:52.908Z,-0.62
2023-03-11T07:51:22.701Z,-0.58
2023-03-11T07:53:49.858Z,-0.45
2023-03-11T07:56:17.336Z,-0.38
2023-03-11T07:58:45.986Z,-0.44
2023-03-11T08:01:20.768Z,-0.40
2023-03-11T08:03:50.095Z,-0.34
2023-03-11T08:06:23.018Z,-0.31
2023-03-11T08:08:50.184Z,-0.27
2023-03-11T08:11:17.552Z,-0.10
2023-03-11T08:13:45.358Z,0.02
2023-03-11T08:16:17.817Z,-0.09
2023-03-11T08:18:44.852Z,0.02
2023-03-11T08:21:13.741Z,0.17
2023-03-11T08:23:40.458Z,0.33
2023-03-11T08:26:12.238Z,0.12
2023-03-11T08:28:38.888Z,0.23
2023-03-11T08:31:19.713Z,0.29
2023-03-11T08:33:49.904Z,0.31
2023-03-11T08:36:19.202Z,0.48
2023-03-11T08:38:45.775Z,0.40
2023-03-11T08:41:12.784Z,0.33
2023-03-11T08:43:39.811Z,0.36
2023-03-11T08:46:06.972Z,0.15
2023-03-11T08:48:34.610Z,0.14
2023-03-11T08:51:01.024Z,0.00
2023-03-11T08:53:27.434Z,0.07
2023-03-11T08:55:53.889Z,0.06
2023-03-11T08:58:20.495Z,0.06
2023-03-11T09:00:47.085Z,0.04
2023-03-11T09:03:13.650Z,0.03
2023-03-11T09:05:40.452Z,0.01
2023-03-11T09:08:06.988Z,-0.04
2023-03-11T09:10:33.538Z,-0.01
2023-03-11T09:12:59.980Z,0.02
2023-03-11T09:15:26.533Z,0.12
2023-03-11T09:17:53.912Z,0.20
2023-03-11T09:20:20.474Z,0.02
2023-03-11T09:22:47.541Z,-0.16
2023-03-11T09:25:14.853Z,-0.18
2023-03-11T09:27:41.417Z,0.07
2023-03-11T09:30:09.314Z,0.08
2023-03-11T09:32:35.826Z,0.12
2023-03-11T09:35:02.595Z,-0.06
2023-03-11T09:37:30.168Z,0.03
2023-03-11T09:39:56.622Z,0.10
2023-03-11T09:42:37.499Z,0.24
2023-03-11T09:45:15.497Z,0.35
2023-03-11T09:48:00.817Z,0.44
2023-03-11T09:50:42.545Z,0.23
2023-03-11T09:53:30.724Z,0.27
2023-03-11T09:56:03.807Z,0.33
2023-03-11T09:58:59.888Z,0.36
2023-03-11T10:01:30.749Z,0.52
2023-03-11T10:04:02.036Z,0.69
2023-03-11T10:06:29.924Z,0.76
2023-03-11T10:09:36.523Z,0.87
2023-03-11T10:12:06.680Z,1.01
2023-03-11T10:14:51.973Z,1.07
2023-03-11T10:17:59.937Z,1.48
2023-03-11T10:20:41.638Z,1.70
2023-03-11T10:23:25.109Z,1.83
2023-03-11T10:26:03.441Z,2.05
2023-03-11T10:28:37.228Z,2.06
2023-03-11T10:31:20.651Z,2.17
2023-03-11T10:33:54.964Z,2.36
2023-03-11T10:36:28.469Z,2.27
2023-03-11T10:38:56.006Z,2.41
2023-03-11T10:41:50.756Z,2.24
2023-03-11T10:44:33.831Z,2.10
2023-03-11T10:47:01.684Z,2.30
2023-03-11T10:49:29.376Z,2.22
2023-03-11T10:51:57.156Z,2.54
2023-03-11T10:55:00.068Z,2.91
2023-03-11T10:57:28.983Z,3.08
2023-03-11T10:59:57.378Z,3.33
2023-03-11T11:02:26.745Z,3.27
2023-03-11T11:05:17.871Z,3.47
2023-03-11T11:07:46.231Z,3.57
2023-03-11T11:10:19.120Z,3.69
2023-03-11T11:12:57.466Z,3.87
2023-03-11T11:15:36.691Z,3.71
2023-03-11T11:18:23.744Z,3.77
2023-03-11T11:20:57.815Z,3.87
2023-03-11T11:23:27.815Z,4.09
2023-03-11T11:25:59.936Z,4.32
2023-03-11T11:28:26.760Z,4.41
2023-03-11T11:30:56.601Z,4.71
2023-03-11T11:33:24.706Z,4.81
2023-03-11T11:36:03.622Z,4.93
2023-03-11T11:38:32.780Z,4.98
2023-03-11T11:41:03.642Z,4.56
2023-03-11T11:43:44.053Z,4.37
2023-03-11T11:46:33.016Z,4.52
2023-03-11T11:49:27.247Z,4.94
2023-03-11T11:52:00.576Z,5.32
2023-03-11T11:54:41.083Z,5.40
2023-03-11T11:57:13.599Z,5.46
2023-03-11T11:59:40.256Z,5.41
2023-03-11T12:02:21.006Z,5.47
2023-03-11T12:05:06.222Z,5.42
2023-03-11T12:07:35.434Z,5.42
2023-03-11T12:10:27.897Z,5.68
2023-03-11T12:13:33.010Z,5.86
2023-03-11T12:16:38.436Z,5.43
2023-03-11T12:19:10.914Z,5.05
2023-03-11T12:21:48.594Z,4.93
2023-03-11T12:24:47.984Z,4.87
2023-03-11T12:27:33.191Z,5.17
2023-03-11T12:30:11.648Z,5.80
2023-03-11T12:32:43.635Z,6.09
2023-03-11T12:35:19.157Z,6.23
2023-03-11T12:37:45.942Z,6.42
2023-03-11T12:40:49.518Z,6.46
2023-03-11T12:43:47.990Z,6.50
2023-03-11T12:46:19.057Z,6.53
2023-03-11T12:49:12.727Z,6.65
2023-03-11T12:51:40.675Z,6.49
2023-03-11T12:54:30.618Z,6.62
2023-03-11T12:57:19.136Z,6.82
2023-03-11T13:00:02.745Z,7.26
2023-03-11T13:03:13.106Z,7.39
2023-03-11T13:06:00.216Z,7.62
2023-03-11T13:08:28.391Z,7.67
2023-03-11T13:10:56.343Z,7.90
2023-03-11T13:13:35.289Z,7.85
2023-03-11T13:16:30.986Z,7.93
2023-03-11T13:19:26.154Z,7.97
2023-03-11T13:21:54.601Z,7.83
2023-03-11T13:24:21.976Z,8.17
2023-03-11T13:26:52.835Z,8.25
2023-03-11T13:30:03.004Z,8.15
2023-03-11T13:32:35.391Z,8.37
2023-03-11T13:35:26.661Z,8.49
2023-03-11T13:38:18.699Z,8.68
2023-03-11T13:40:46.929Z,9.02
2023-03-11T13:43:18.997Z,9.31
2023-03-11T13:45:57.634Z,9.32
2023-03-11T13:48:31.116Z,9.34
2023-03-11T13:51:06.361Z,9.94
2023-03-11T13:53:39.404Z,10.16
2023-03-11T13:56:06.552Z,10.34
2023-03-11T13:58:33.005Z,10.65
2023-03-11T14:01:01.884Z,11.04
2023-03-11T14:03:33.346Z,12.80
2023-03-11T14:06:08.527Z,12.73
2023-03-11T14:08:36.702Z,14.78
2023-03-11T14:11:04.542Z,16.20
2023-03-11T14:13:33.848Z,18.88
2023-03-11T14:16:08.585Z,19.32
2023-03-11T14:18:37.724Z,20.12
2023-03-11T14:21:06.990Z,19.76
2023-03-11T14:23:41.682Z,18.74
2023-03-11T14:26:30.664Z,19.10
2023-03-11T14:28:59.674Z,15.33
2023-03-11T14:31:36.041Z,12.30
2023-03-11T14:34:17.837Z,11.98
2023-03-11T14:36:45.811Z,12.17
2023-03-11T14:39:25.524Z,13.18
2023-03-11T14:42:18.612Z,13.29
2023-03-11T14:45:01.727Z,13.24
2023-03-11T14:47:41.732Z,14.18
2023-03-11T14:50:16.597Z,14.60
2023-03-11T14:52:48.553Z,12.29
2023-03-11T14:55:22.905Z,11.70
2023-03-11T14:57:54.710Z,12.60
2023-03-11T15:00:25.512Z,12.02
2023-03-11T15:03:03.664Z,12.43
2023-03-11T15:06:16.302Z,11.95
2023-03-11T15:08:48.246Z,10.76
2023-03-11T15:11:15.031Z,10.43
2023-03-11T15:13:44.024Z,9.78
2023-03-11T15:16:31.392Z,9.60
2023-03-11T15:19:00.965Z,9.29
2023-03-11T15:21:28.024Z,8.81
2023-03-11T15:24:06.583Z,8.44
2023-03-11T15:26:35.738Z,7.95
2023-03-11T15:29:12.867Z,7.58
2023-03-11T15:31:40.698Z,7.53
2023-03-11T15:34:16.160Z,7.26
2023-03-11T15:36:56.461Z,7.23
2023-03-11T15:39:45.719Z,6.92
2023-03-11T15:42:17.978Z,6.76
2023-03-11T15:45:08.759Z,6.37
2023-03-11T15:47:36.069Z,6.34
2023-03-11T15:50:23.537Z,6.03
2023-03-11T15:52:53.005Z,5.94
2023-03-11T15:55:19.652Z,5.61
2023-03-11T15:57:47.971Z,5.71
2023-03-11T16:00:18.821Z,5.58
2023-03-11T16:02:45.900Z,5.21
2023-03-11T16:05:17.783Z,5.06
2023-03-11T16:07:44.444Z,4.74
2023-03-11T16:10:11.624Z,4.80
2023-03-11T16:12:39.072Z,4.59
2023-03-11T16:15:07.013Z,4.56
2023-03-11T16:17:48.415Z,4.43
2023-03-11T16:20:16.213Z,4.26
2023-03-11T16:22:42.755Z,4.08
2023-03-11T16:25:22.835Z,3.96
2023-03-11T16:27:54.724Z,3.98
2023-03-11T16:30:22.178Z,3.87
2023-03-11T16:32:49.093Z,3.85
2023-03-11T16:35:16.123Z,3.84
2023-03-11T16:37:43.343Z,4.00
2023-03-11T16:40:13.888Z,4.17
2023-03-11T16:42:40.744Z,3.91
2023-03-11T16:45:07.628Z,3.98
2023-03-11T16:47:34.029Z,3.76
2023-03-11T16:50:00.484Z,3.53
2023-03-11T16:52:27.236Z,3.54
2023-03-11T16:54:53.659Z,3.60
2023-03-11T16:57:20.097Z,3.61
2023-03-11T16:59:46.580Z,3.52
2023-03-11T17:02:13.054Z,3.47
2023-03-11T17:04:39.519Z,3.38
2023-03-11T17:07:07.119Z,3.28
2023-03-11T17:09:35.220Z,3.25
2023-03-11T17:12:02.503Z,3.30
2023-03-11T17:14:29.367Z,3.31
2023-03-11T17:16:55.883Z,3.25
2023-03-11T17:19:23.966Z,3.20
2023-03-11T17:21:51.486Z,3.19
2023-03-11T17:24:17.948Z,3.21
2023-03-11T17:26:44.466Z,3.20
2023-03-11T17:29:10.888Z,3.32
2023-03-11T17:31:37.324Z,3.29
2023-03-11T17:34:03.803Z,3.25
2023-03-11T17:36:30.345Z,3.25
2023-03-11T17:38:56.785Z,3.25
2023-03-11T17:41:23.548Z,3.21
2023-03-11T17:43:51.556Z,3.23
2023-03-11T17:46:20.355Z,3.19
2023-03-11T17:48:48.802Z,3.12
2023-03-11T17:51:21.490Z,3.12
2023-03-11T17:53:48.975Z,3.07
2023-03-11T17:56:18.234Z,3.01
2023-03-11T17:58:44.685Z,3.02
2023-03-11T18:01:14.575Z,2.94
2023-03-11T18:03:41.446Z,3.05
2023-03-11T18:06:08.772Z,3.08
2023-03-11T18:08:36.303Z,3.08
2023-03-11T18:11:06.078Z,3.05
2023-03-11T18:13:33.571Z,3.08
2023-03-11T18:16:03.628Z,3.09
2023-03-11T18:18:31.718Z,3.05
2023-03-11T18:21:06.307Z,3.05
2023-03-11T18:23:33.737Z,3.06
2023-03-11T18:26:01.323Z,3.05
2023-03-11T18:28:28.274Z,3.01
2023-03-11T18:30:54.871Z,3.02
2023-03-11T18:33:23.104Z,3.08
2023-03-11T18:35:49.564Z,3.12
2023-03-11T18:38:16.199Z,3.16
2023-03-11T18:40:42.619Z,3.13
2023-03-11T18:43:13.203Z,3.10
2023-03-11T18:45:39.971Z,3.07
2023-03-11T18:48:06.506Z,3.05
2023-03-11T18:50:32.973Z,3.03
2023-03-11T18:52:59.941Z,3.03
2023-03-11T18:55:26.371Z,3.02
2023-03-11T18:57:53.166Z,2.97
2023-03-11T19:00:23.462Z,2.93
2023-03-11T19:02:51.867Z,2.80
2023-03-11T19:05:18.415Z,2.65
2023-03-11T19:07:44.938Z,2.69
2023-03-11T19:10:12.295Z,2.74
2023-03-11T19:12:39.892Z,2.73
2023-03-11T19:15:07.084Z,2.69
2023-03-11T19:17:33.518Z,2.65
2023-03-11T19:19:59.980Z,2.56
2023-03-11T19:22:26.439Z,2.54
2023-03-11T19:24:53.764Z,2.52
2023-03-11T19:27:20.182Z,2.47
2023-03-11T19:29:46.590Z,2.43
2023-03-11T19:32:13.139Z,2.41
2023-03-11T19:34:39.955Z,2.36
2023-03-11T19:37:06.364Z,2.32
2023-03-11T19:39:32.863Z,2.24
2023-03-11T19:41:59.283Z,2.18
2023-03-11T19:44:25.806Z,2.14
2023-03-11T19:46:52.282Z,2.13
2023-03-11T19:49:18.723Z,2.07
2023-03-11T19:51:50.127Z,2.09
2023-03-11T19:54:18.152Z,2.06
2023-03-11T19:56:45.323Z,2.01
2023-03-11T19:59:12.156Z,2.00
2023-03-11T20:01:38.787Z,1.92
2023-03-11T20:04:05.597Z,1.87
2023-03-11T20:06:32.179Z,1.84
2023-03-11T20:08:58.731Z,1.79
2023-03-11T20:11:25.203Z,1.71
2023-03-11T20:13:51.716Z,1.65
2023-03-11T20:16:19.387Z,1.59
2023-03-11T20:18:49.999Z,1.60
2023-03-11T20:21:16.909Z,1.62
2023-03-11T20:23:43.360Z,1.60
2023-03-11T20:26:12.801Z,1.55
2023-03-11T20:28:39.665Z,1.50
2023-03-11T20:31:16.009Z,1.50
2023-03-11T20:33:42.980Z,1.49
2023-03-11T20:36:13.415Z,1.47
2023-03-11T20:38:40.633Z,1.47
2023-03-11T20:41:08.178Z,1.46
2023-03-11T20:43:38.040Z,1.41
2023-03-11T20:46:05.309Z,1.42
2023-03-11T20:48:32.046Z,1.42
2023-03-11T20:51:03.482Z,1.38
2023-03-11T20:53:31.377Z,1.32
2023-03-11T20:56:06.631Z,1.26
2023-03-11T20:58:33.046Z,1.25
2023-03-11T21:00:59.627Z,1.20
2023-03-11T21:03:26.195Z,1.16
2023-03-11T21:05:52.692Z,1.10
2023-03-11T21:08:19.162Z,1.04
2023-03-11T21:10:45.692Z,0.99
2023-03-11T21:13:12.332Z,0.96
2023-03-11T21:15:38.794Z,0.94
2023-03-11T21:18:06.956Z,0.90
2023-03-11T21:20:33.388Z,0.88
2023-03-11T21:22:59.900Z,0.85
2023-03-11T21:25:28.474Z,0.88
2023-03-11T21:27:54.934Z,0.87
2023-03-11T21:30:21.518Z,0.81
2023-03-11T21:32:48.215Z,0.81
2023-03-11T21:35:14.971Z,0.80
2023-03-11T21:37:41.472Z,0.79
2023-03-11T21:40:08.796Z,0.79
2023-03-11T21:42:35.366Z,0.77
2023-03-11T21:45:01.929Z,0.70
2023-03-11T21:47:28.436Z,0.70
2023-03-11T21:49:55.064Z,0.67
2023-03-11T21:52:21.705Z,0.64
2023-03-11T21:54:48.244Z,0.57
2023-03-11T21:57:14.866Z,0.54
2023-03-11T21:59:41.474Z,0.52
2023-03-11T22:02:14.430Z,0.49
2023-03-11T22:04:42.800Z,0.46
2023-03-11T22:07:09.779Z,0.42
2023-03-11T22:09:36.442Z,0.40
2023-03-11T22:12:04.229Z,0.40
2023-03-11T22:14:30.828Z,0.37
2023-03-11T22:16:57.455Z,0.28
2023-03-11T22:19:24.037Z,0.25
2023-03-11T22:21:50.621Z,0.21
2023-03-11T22:24:17.118Z,0.21
2023-03-11T22:26:44.734Z,0.23
2023-03-11T22:29:13.524Z,0.19
2023-03-11T22:31:40.312Z,0.19
2023-03-11T22:34:06.860Z,0.17
2023-03-11T22:36:33.304Z,0.14
2023-03-11T22:39:01.001Z,0.14
2023-03-11T22:41:30.928Z,0.13
2023-03-11T22:43:57.374Z,0.12
2023-03-11T22:46:23.997Z,0.13
2023-03-11T22:48:50.421Z,0.06
2023-03-11T22:51:17.172Z,0.05
2023-03-11T22:53:43.827Z,0.06
2023-03-11T22:56:13.353Z,0.05
2023-03-11T22:58:40.652Z,0.01
2023-03-11T23:01:07.637Z,0.02
2023-03-11T23:03:35.172Z,0.04
2023-03-11T23:06:04.381Z,0.01
2023-03-11T23:08:31.162Z,-0.07
2023-03-11T23:11:02.657Z,-0.03
2023-03-11T23:13:30.414Z,-0.07
2023-03-11T23:15:56.838Z,-0.03
2023-03-11T23:18:23.261Z,-0.04
2023-03-11T23:20:49.812Z,-0.20
2023-03-11T23:23:16.231Z,-0.18
2023-03-11T23:25:42.780Z,-0.11
2023-03-11T23:28:09.236Z,-0.09
2023-03-11T23:30:35.844Z,-0.10
2023-03-11T23:33:02.893Z,-0.10
2023-03-11T23:35:30.443Z,-0.11
2023-03-11T23:37:57.093Z,-0.10
2023-03-11T23:40:23.506Z,-0.10
2023-03-11T23:42:50.730Z,-0.03
2023-03-11T23:45:17.491Z,0.06
2023-03-11T23:47:43.971Z,0.10
2023-03-11T23:50:10.738Z,0.09
2023-03-11T23:52:37.292Z,0.11
2023-03-11T23:55:04.038Z,0.07
2023-03-11T23:57:30.443Z,0.11
2023-03-11T23:59:56.953Z,0.11
